ADDS METAR Data INFO
IDs: Format: Raw Decoded Include TAF

Data at: 0734 UTC 21 Jul 2018

PAWM 210656Z AUTO 00000KT 9SM CLR 13/09 A3021 RMK AO2 SLP232 T01330089
PAWM 210556Z AUTO 00000KT 8SM CLR 14/09 A3021 RMK AO2 SLP232 T01390089 10144 20128 58007
PAWM 210456Z AUTO 20004KT 8SM CLR 14/08 A3022 RMK AO2 SLP235 T01390083
PAWM 210427Z AUTO 19005KT 9SM SCT025 13/08 A3022 RMK AO2
PAWM 210356Z AUTO 23007KT 8SM BKN025 14/08 A3022 RMK AO2 SLP237 T01390083
PAWM 210347Z AUTO 23006KT 9SM BKN025 14/08 A3022 RMK AO2
PAWM 210325Z AUTO 18005KT 9SM SCT025 14/09 A3023 RMK AO2
PAWM 210256Z AUTO 20007KT 9SM OVC025 14/08 A3023 RMK AO2 SLP239 T01390083 56005
PAWM 210156Z AUTO 00000KT 9SM OVC023 13/09 A3023 RMK AO2 SLP240 T01330089
PAWM 210056Z AUTO 18005KT 9SM OVC021 13/09 A3024 RMK AO2 SLP242 T01330089
PAWM 202356Z AUTO 00000KT 9SM OVC021 13/08 A3024 RMK AO2 SLP244 60000 T01280083 10133 20100 58004
PAWM 202256Z AUTO VRB03KT 10SM OVC015 12/09 A3025 RMK AO2 SLP247 T01220089
PAWM 202156Z AUTO 00000KT 9SM OVC017 12/08 A3026 RMK AO2 SLP248 T01220083
PAWM 202056Z AUTO 21004KT 9SM OVC015 12/08 A3026 RMK AO2 SLP248 60000 T01170083 53001
PAWM 202042Z AUTO 21004KT 9SM OVC015 12/08 A3026 RMK AO2
PAWM 201956Z AUTO 23004KT 10SM OVC013 11/09 A3025 RMK AO2 RAE1858 SLP246 P0000 T01110089
PAWM 201920Z AUTO 00000KT 8SM OVC007 11/10 A3025 RMK AO2 RAE1858 CIG 003V009 P0000
PAWM 201904Z AUTO 26005KT 3SM BR OVC005 11/09 A3025 RMK AO2 RAE1858 CIG 002V010 P0000
PAWM 201856Z AUTO 26004KT 2SM -RA BR BKN003 OVC009 10/09 A3025 RMK AO2 VIS 1 1/2V3 RAB45 CIG 002V007 SLP247 P0000 T01000094
PAWM 201854Z AUTO 25005KT 2 1/2SM -RA BR BKN003 OVC009 10/09 A3025 RMK AO2 RAB45 P0000
PAWM 201848Z AUTO 23005KT 1 3/4SM -RA BR SCT003 OVC009 10/09 A3025 RMK AO2 VIS 1V5 RAB45 CIG 007V011 P0000
PAWM 201835Z AUTO 00000KT 7SM OVC009 10/09 A3025 RMK AO2 CIG 007V011
PAWM 201756Z AUTO 00000KT 10SM OVC011 10/09 A3025 RMK AO2 SLP247 60001 T01000089 10100 20094 50001
PAWM 201656Z AUTO 31003KT 5SM BR FEW005 OVC011 09/09 A3025 RMK AO2 SLP248 T00940089
PAWM 201644Z AUTO 27003KT 4SM BR SCT005 OVC011 09/09 A3025 RMK AO2
PAWM 201631Z AUTO 26004KT 4SM BR BKN005 OVC009 09/09 A3026 RMK AO2 CIG 003V008
PAWM 201623Z AUTO 00000KT 4SM BR SCT005 OVC011 09/09 A3025 RMK AO2
PAWM 201556Z AUTO 28003KT 5SM BR OVC011 09/09 A3025 RMK AO2 SLP247 T00940094
PAWM 201508Z AUTO 31003KT 3SM BR FEW005 OVC013 09/09 A3025 RMK AO2
PAWM 201505Z AUTO 32003KT 2 1/2SM BR OVC010 09/09 A3025 RMK AO2 VIS 1 1/2V5
PAWM 201456Z AUTO 30003KT 4SM BR FEW005 BKN010 OVC013 09/09 A3025 RMK AO2 RAB37E55 CIG 008V012 SLP247 P0001 60001 T00940094 58000
PAWM 201454Z AUTO 00000KT 5SM -RA BR BKN010 OVC013 09/09 A3025 RMK AO2 RAB37 CIG 004V012 P0001
PAWM 201447Z AUTO 00000KT 2 1/2SM -RA BR OVC010 09/09 A3025 RMK AO2 VIS 1 3/4V5 RAB37 CIG 005V011 P0001
PAWM 201429Z AUTO 30003KT 1 3/4SM BR FEW006 OVC012 09/09 A3025 RMK AO2 VIS 1 1/4V4
PAWM 201420Z AUTO 29004KT 2SM BR BKN008 OVC014 09/09 A3025 RMK AO2 VIS 1 1/4V4 CIG 005V011
PAWM 201416Z AUTO 29003KT 1 3/4SM BR SCT006 OVC012 09/09 A3025 RMK AO2 VIS 1 1/4V4
PAWM 201412Z AUTO 28003KT 2SM BR BKN006 OVC014 09/09 A3025 RMK AO2 VIS 1 1/4V4 CIG 004V010
PAWM 201405Z AUTO 28003KT 3SM BR SCT004 OVC013 09/09 A3025 RMK AO2
PAWM 201356Z AUTO 28003KT 7SM BKN004 OVC015 09/09 A3025 RMK AO2 RAE1257 CIG 002V007 SLP249 T00940094
PAWM 201352Z AUTO 27004KT 3SM BR BKN004 OVC015 09/09 A3026 RMK AO2 RAE1257 CIG 002V007
PAWM 201327Z AUTO 25003KT 3/4SM BR BKN004 OVC010 10/09 A3026 RMK AO2 RAE1257
PAWM 201324Z AUTO 25004KT 1/2SM FG BKN006 OVC010 10/09 A3026 RMK AO2 RAE1257 CIG 004V008
PAWM 201315Z AUTO 24003KT 3/4SM BR BKN006 OVC009 10/09 A3025 RMK AO2 RAE1257 CIG 003V007
PAWM 201308Z AUTO 25004KT 1 1/4SM BR OVC006 10/09 A3025 RMK AO2 RAE1257 CIG 002V008
PAWM 201258Z AUTO 24003KT 2SM BR OVC004 10/09 A3025 RMK AO2 VIS 3/4V5 RAE57 CIG 002V009
PAWM 201256Z AUTO 24003KT 3/4SM -RA BR OVC004 10/09 A3025 RMK AO2 VIS M1/4V5 RAB34 CIG 002V008 SLP247 P0000 T01000094
PAWM 201252Z AUTO 24003KT 3/4SM -RA BR BKN004 OVC008 10/09 A3025 RMK AO2 VIS M1/4V3 RAB34 CIG 002V006 P0000
PAWM 201245Z AUTO 00000KT 1/4SM -RA FG BKN004 OVC008 10/09 A3025 RMK AO2 RAB34 P0000
PAWM 201236Z AUTO 00000KT 1/2SM -RA FG OVC004 10/10 A3025 RMK AO2 RAB34 P0000
PAWM 201234Z AUTO 00000KT 1SM -RA BR OVC004 10/10 A3025 RMK AO2 RAB34 P0000
PAWM 201221Z AUTO 00000KT 2 1/2SM BR BKN004 OVC009 10/10 A3026 RMK AO2 VIS 1 3/4V5
PAWM 201156Z AUTO 00000KT 6SM BR BKN008 OVC012 10/10 A3026 RMK AO2 CIG 005V010 SLP249 70005 T01000100 10117 20100 58001
PAWM 201148Z AUTO 00000KT 5SM BR BKN008 OVC016 10/10 A3026 RMK AO2 CIG 006V012
PAWM 201124Z AUTO 00000KT 10SM BKN010 OVC016 10/09 A3026 RMK AO2 CIG 006V013
PAWM 201108Z AUTO 00000KT 8SM OVC008 10/10 A3026 RMK AO2 CIG 005V012
PAWM 201043Z AUTO 26003KT 8SM BKN005 OVC010 10/10 A3026 RMK AO2
PAWM 201036Z AUTO 27003KT 9SM BKN007 OVC012 10/10 A3026 RMK AO2 CIG 005V009
PAWM 200956Z AUTO 00000KT 6SM BR OVC010 10/10 A3026 RMK AO2 SLP251 T01000100
PAWM 200938Z AUTO 00000KT 3SM BR FEW003 OVC010 10/10 A3026 RMK AO2 CIG 007V011
PAWM 200935Z AUTO 00000KT 1 1/4SM BR FEW003 OVC010 10/10 A3026 RMK AO2 VIS 1/2V5 CIG 007V011
PAWM 200924Z AUTO 00000KT 3/4SM BR SCT005 OVC010 10/10 A3026 RMK AO2
PAWM 200917Z AUTO 24003KT 1 3/4SM BR SCT003 OVC010 10/10 A3026 RMK AO2 CIG 007V013
PAWM 200856Z AUTO 25003KT 4SM BR OVC011 11/10 A3026 RMK AO2 SLP250 T01060100 401330089 51004
PAWM 200814Z AUTO 26004KT 5SM BR SCT007 BKN011 OVC015 11/10 A3026 RMK AO2
PAWM 200809Z AUTO 24003KT 4SM BR BKN005 OVC015 11/10 A3025 RMK AO2
PAWM 200756Z AUTO 20003KT 8SM FEW007 OVC015 11/10 A3025 RMK AO2 SLP248 T01110100
PAWM 200742Z AUTO 00000KT 9SM SCT007 BKN013 OVC025 11/10 A3025 RMK AO2
PAWM 200732Z AUTO 26003KT 9SM SCT007 SCT013 OVC024 11/10 A3025 RMK AO2
PAWM 200705Z AUTO 25005KT 9SM SCT007 BKN013 OVC023 11/10 A3025 RMK AO2
PAWM 200656Z AUTO 23005KT 10SM BKN013 OVC025 11/10 A3025 RMK AO2 SLP246 T01110100
PAWM 200608Z AUTO 24005KT 10SM BKN013 OVC027 12/09 A3024 RMK AO2
PAWM 200556Z AUTO 22005KT 9SM SCT015 OVC027 12/09 A3024 RMK AO2 SLP244 60000 T01170094 10133 20111 53001
PAWM 200456Z AUTO 21005KT 9SM BKN015 OVC028 12/09 A3024 RMK AO2 SLP243 T01220094
PAWM 200356Z AUTO 22007KT 8SM SCT013 BKN020 OVC029 13/10 A3024 RMK AO2 SLP242 T01280100
PAWM 200348Z AUTO 23005KT 9SM BKN013 BKN020 OVC029 13/10 A3024 RMK AO2
PAWM 200320Z AUTO 21006KT 9SM FEW011 BKN020 OVC034 13/10 A3024 RMK AO2
PAWM 200256Z AUTO 23005KT 7SM OVC014 12/10 A3024 RMK AO2 SLP243 60000 T01220100 50002
PAWM 200245Z AUTO 23006KT 9SM OVC014 12/10 A3024 RMK AO2
PAWM 200226Z AUTO 26006KT 6SM BR FEW007 OVC016 12/11 A3024 RMK AO2
PAWM 200156Z AUTO 28006KT 9SM OVC016 12/10 A3024 RMK AO2 SLP244 T01170100
PAWM 200134Z AUTO 26004KT 9SM BKN016 OVC021 12/09 A3024 RMK AO2
PAWM 200108Z AUTO 25006KT 9SM OVC014 12/09 A3023 RMK AO2
PAWM 200056Z AUTO 25005KT 9SM BKN016 OVC020 12/10 A3023 RMK AO2 RAB02E17 SLP242 P0000 T01170100
PAWM 200037Z AUTO 25006KT 10SM SCT008 OVC014 11/10 A3023 RMK AO2 RAB02E17 P0000
PAWM 200021Z AUTO 23007KT 8SM BKN006 OVC011 11/11 A3023 RMK AO2 RAB02E17 CIG 004V008 P0000
PAWM 200010Z AUTO 25006KT 3SM -RA BR BKN005 OVC011 11/10 A3023 RMK AO2 RAB02 CIG 001V007 P0000
PAWM 200001Z AUTO 25004KT 1 3/4SM BR BKN005 OVC011 11/11 A3023 RMK AO2 VIS 1V5 CIG 003V009
PAWM 192356Z AUTO 25005KT 3SM BR SCT005 OVC011 11/11 A3023 RMK AO2 RAE55 SLP241 P0002 60003 T01110106 10111 20094 51007
PAWM 192349Z AUTO 28004KT 3SM -RA BR BKN005 OVC011 11/11 A3023 RMK AO2 CIG 001V007 P0002
PAWM 192342Z AUTO 27003KT 1 1/4SM -RA BR BKN005 OVC011 11/11 A3023 RMK AO2 VIS 1V2 CIG 003V007 P0002
PAWM 192332Z AUTO VRB03KT 1 3/4SM -RA BR OVC008 11/11 A3023 RMK AO2 VIS 3/4V5 CIG 003V013 P0001
PAWM 192329Z AUTO 00000KT 2SM -RA BR FEW005 OVC010 11/11 A3023 RMK AO2 VIS 1 1/4V5 CIG 007V013 P0001
PAWM 192314Z AUTO 00000KT 1SM -RA BR FEW005 OVC010 11/10 A3022 RMK AO2 CIG 007V011 P0000
PAWM 192256Z AUTO 30004KT 2SM -RA BR BKN005 OVC010 11/10 A3022 RMK AO2 RAB54 CIG 003V009 SLP238 P0000 T01060100
PAWM 192232Z AUTO 00000KT 9SM FEW005 BKN009 OVC016 11/10 A3022 RMK AO2 CIG 008V012
PAWM 192156Z AUTO 27003KT 4SM BR OVC005 11/10 A3022 RMK AO2 SLP237 T01060100
PAWM 192142Z AUTO 27003KT 4SM BR OVC005 11/10 A3022 RMK AO2 CIG 004V009
PAWM 192106Z AUTO 27003KT 4SM BR OVC007 10/09 A3021 RMK AO2 CIG 002V010
PAWM 192058Z AUTO 29004KT 2 1/2SM BR OVC005 10/09 A3021 RMK AO2 CIG 002V010
PAWM 192056Z AUTO 29004KT 3SM BR BKN003 OVC008 10/09 A3021 RMK AO2 RAE1958 CIG 002V006 SLP233 P0000 60001 T01000094 53010
PAWM 192042Z AUTO 27003KT 3SM BR BKN003 OVC008 10/09 A3021 RMK AO2 RAE1958 P0000
PAWM 192034Z AUTO 26003KT 1 1/2SM BR OVC003 10/09 A3020 RMK AO2 RAE1958 P0000
PAWM 192011Z AUTO 25003KT 2SM BR BKN003 OVC011 09/09 A3020 RMK AO2 VIS 1V3 RAE1958 P0000
PAWM 191956Z AUTO 26004KT 1 1/2SM -RA BR OVC003 09/09 A3020 RMK AO2 CIG 002V008 SLP229 P0001 T00940094
PAWM 191949Z AUTO 26005KT 1SM -RA BR OVC003 09/09 A3020 RMK AO2 P0001
PAWM 191938Z AUTO 29004KT 3/4SM -RA BR OVC003 09/09 A3020 RMK AO2 P0000